sensor_id;sensor_type;location;lat;lon;timestamp;pressure;altitude;pressure_sealevel;temperature;humidity
68456;BME280;55437;55.046;38.838;2024-02-21T00:01:08;101021.78;;;-2.67;55.86
68456;BME280;55437;55.046;38.838;2024-02-21T00:03:34;101019.22;;;-2.69;55.58
68456;BME280;55437;55.046;38.838;2024-02-21T00:05:59;101014.66;;;-2.77;56.32
68456;BME280;55437;55.046;38.838;2024-02-21T00:08:25;101008.97;;;-2.73;56.08
68456;BME280;55437;55.046;38.838;2024-02-21T00:10:51;101014.66;;;-2.77;56.19
68456;BME280;55437;55.046;38.838;2024-02-21T00:13:17;101001.19;;;-2.79;56.49
68456;BME280;55437;55.046;38.838;2024-02-21T00:15:43;101006.00;;;-2.84;56.48
68456;BME280;55437;55.046;38.838;2024-02-21T00:18:09;101004.22;;;-2.86;57.03
68456;BME280;55437;55.046;38.838;2024-02-21T00:20:36;101002.22;;;-2.74;57.09
68456;BME280;55437;55.046;38.838;2024-02-21T00:23:02;101001.63;;;-2.69;56.92
68456;BME280;55437;55.046;38.838;2024-02-21T00:25:29;100994.94;;;-2.68;56.81
68456;BME280;55437;55.046;38.838;2024-02-21T00:27:55;100994.44;;;-2.60;56.79
68456;BME280;55437;55.046;38.838;2024-02-21T00:30:21;100996.81;;;-2.63;56.75
68456;BME280;55437;55.046;38.838;2024-02-21T00:32:47;100988.25;;;-2.68;56.63
68456;BME280;55437;55.046;38.838;2024-02-21T00:35:14;100989.66;;;-2.74;56.94
68456;BME280;55437;55.046;38.838;2024-02-21T00:37:40;100979.84;;;-2.68;56.80
68456;BME280;55437;55.046;38.838;2024-02-21T00:40:06;100991.19;;;-2.57;56.82
68456;BME280;55437;55.046;38.838;2024-02-21T00:42:32;100971.75;;;-2.61;56.95
68456;BME280;55437;55.046;38.838;2024-02-21T00:44:58;100972.13;;;-2.73;56.94
68456;BME280;55437;55.046;38.838;2024-02-21T00:47:24;100973.09;;;-2.69;57.33
68456;BME280;55437;55.046;38.838;2024-02-21T00:49:52;100972.13;;;-2.73;57.21
68456;BME280;55437;55.046;38.838;2024-02-21T00:52:18;100973.84;;;-2.72;57.67
68456;BME280;55437;55.046;38.838;2024-02-21T00:54:44;100964.50;;;-2.74;57.90
68456;BME280;55437;55.046;38.838;2024-02-21T00:57:10;100970.84;;;-2.84;57.71
68456;BME280;55437;55.046;38.838;2024-02-21T00:59:36;100964.81;;;-2.87;58.21
68456;BME280;55437;55.046;38.838;2024-02-21T01:02:02;100956.41;;;-2.88;57.87
68456;BME280;55437;55.046;38.838;2024-02-21T01:04:27;100962.56;;;-2.81;57.81
68456;BME280;55437;55.046;38.838;2024-02-21T01:06:53;100954.91;;;-2.84;57.36
68456;BME280;55437;55.046;38.838;2024-02-21T01:09:19;100954.91;;;-2.84;58.09
68456;BME280;55437;55.046;38.838;2024-02-21T01:11:45;100951.00;;;-2.78;57.91
68456;BME280;55437;55.046;38.838;2024-02-21T01:14:11;100949.06;;;-2.83;58.14
68456;BME280;55437;55.046;38.838;2024-02-21T01:16:37;100951.66;;;-2.82;58.17
68456;BME280;55437;55.046;38.838;2024-02-21T01:19:02;100947.34;;;-2.84;57.91
68456;BME280;55437;55.046;38.838;2024-02-21T01:21:28;100940.94;;;-2.78;57.60
68456;BME280;55437;55.046;38.838;2024-02-21T01:23:54;100939.22;;;-2.79;57.60
68456;BME280;55437;55.046;38.838;2024-02-21T01:26:20;100940.22;;;-2.74;57.48
68456;BME280;55437;55.046;38.838;2024-02-21T01:28:46;100938.84;;;-2.67;57.30
68456;BME280;55437;55.046;38.838;2024-02-21T01:31:12;100944.41;;;-2.74;57.48
68456;BME280;55437;55.046;38.838;2024-02-21T01:33:38;100935.22;;;-2.74;57.89
68456;BME280;55437;55.046;38.838;2024-02-21T01:36:05;100928.31;;;-2.79;57.85
68456;BME280;55437;55.046;38.838;2024-02-21T01:38:34;100936.72;;;-2.79;57.65
68456;BME280;55437;55.046;38.838;2024-02-21T01:41:00;100927.50;;;-2.78;57.57
68456;BME280;55437;55.046;38.838;2024-02-21T01:43:26;100921.78;;;-2.74;57.59
68456;BME280;55437;55.046;38.838;2024-02-21T01:45:54;100926.75;;;-2.76;57.67
68456;BME280;55437;55.046;38.838;2024-02-21T01:48:22;100927.53;;;-2.77;57.69
68456;BME280;55437;55.046;38.838;2024-02-21T01:50:49;100925.28;;;-2.71;57.82
68456;BME280;55437;55.046;38.838;2024-02-21T01:53:21;100921.00;;;-2.73;57.90
68456;BME280;55437;55.046;38.838;2024-02-21T01:55:48;100929.56;;;-2.68;57.76
68456;BME280;55437;55.046;38.838;2024-02-21T01:58:16;100922.97;;;-2.66;57.25
68456;BME280;55437;55.046;38.838;2024-02-21T02:00:42;100922.09;;;-2.67;57.47
68456;BME280;55437;55.046;38.838;2024-02-21T02:03:13;100918.28;;;-2.57;57.12
68456;BME280;55437;55.046;38.838;2024-02-21T02:05:49;100916.22;;;-2.45;56.82
68456;BME280;55437;55.046;38.838;2024-02-21T02:08:16;100923.81;;;-2.43;57.22
68456;BME280;55437;55.046;38.838;2024-02-21T02:10:43;100916.28;;;-2.43;57.31
68456;BME280;55437;55.046;38.838;2024-02-21T02:13:09;100921.06;;;-2.49;56.85
68456;BME280;55437;55.046;38.838;2024-02-21T02:15:49;100926.69;;;-2.57;57.11
68456;BME280;55437;55.046;38.838;2024-02-21T02:18:16;100921.34;;;-2.64;57.36
68456;BME280;55437;55.046;38.838;2024-02-21T02:20:44;100914.44;;;-2.70;57.21
68456;BME280;55437;55.046;38.838;2024-02-21T02:25:47;100912.44;;;-2.56;57.01
68456;BME280;55437;55.046;38.838;2024-02-21T02:28:20;100911.94;;;-2.47;56.91
68456;BME280;55437;55.046;38.838;2024-02-21T02:30:46;100910.47;;;-2.42;56.92
68456;BME280;55437;55.046;38.838;2024-02-21T02:33:13;100914.25;;;-2.52;57.36
68456;BME280;55437;55.046;38.838;2024-02-21T02:35:38;100906.50;;;-2.58;56.97
68456;BME280;55437;55.046;38.838;2024-02-21T02:38:05;100911.06;;;-2.48;57.16
68456;BME280;55437;55.046;38.838;2024-02-21T02:40:33;100899.97;;;-2.53;57.02
68456;BME280;55437;55.046;38.838;2024-02-21T02:42:59;100908.34;;;-2.54;56.97
68456;BME280;55437;55.046;38.838;2024-02-21T02:45:25;100905.75;;;-2.56;56.92
68456;BME280;55437;55.046;38.838;2024-02-21T02:47:53;100901.19;;;-2.66;57.04
68456;BME280;55437;55.046;38.838;2024-02-21T02:50:27;100906.31;;;-2.63;57.41
68456;BME280;55437;55.046;38.838;2024-02-21T02:52:53;100913.78;;;-2.64;57.39
68456;BME280;55437;55.046;38.838;2024-02-21T02:55:20;100908.03;;;-2.62;57.25
68456;BME280;55437;55.046;38.838;2024-02-21T02:57:46;100906.38;;;-2.61;57.25
68456;BME280;55437;55.046;38.838;2024-02-21T03:00:13;100898.22;;;-2.56;57.15
68456;BME280;55437;55.046;38.838;2024-02-21T03:02:43;100903.47;;;-2.49;56.88
68456;BME280;55437;55.046;38.838;2024-02-21T03:05:14;100906.16;;;-2.45;57.39
68456;BME280;55437;55.046;38.838;2024-02-21T03:07:40;100905.97;;;-2.49;56.98
68456;BME280;55437;55.046;38.838;2024-02-21T03:10:06;100908.50;;;-2.49;56.99
68456;BME280;55437;55.046;38.838;2024-02-21T03:12:32;100903.53;;;-2.48;56.96
68456;BME280;55437;55.046;38.838;2024-02-21T03:14:58;100900.41;;;-2.42;56.92
68456;BME280;55437;55.046;38.838;2024-02-21T03:17:24;100913.78;;;-2.43;56.69
68456;BME280;55437;55.046;38.838;2024-02-21T03:19:52;100904.72;;;-2.38;56.56
68456;BME280;55437;55.046;38.838;2024-02-21T03:22:19;100909.13;;;-2.33;56.57
68456;BME280;55437;55.046;38.838;2024-02-21T03:24:46;100906.75;;;-2.30;57.02
68456;BME280;55437;55.046;38.838;2024-02-21T03:27:11;100902.16;;;-2.40;56.92
68456;BME280;55437;55.046;38.838;2024-02-21T03:30:03;100899.09;;;-2.54;57.28
68456;BME280;55437;55.046;38.838;2024-02-21T03:32:31;100899.09;;;-2.55;57.33
68456;BME280;55437;55.046;38.838;2024-02-21T03:34:57;100894.84;;;-2.56;57.54
68456;BME280;55437;55.046;38.838;2024-02-21T03:37:23;100896.66;;;-2.52;56.87
68456;BME280;55437;55.046;38.838;2024-02-21T03:39:49;100889.81;;;-2.56;57.05
68456;BME280;55437;55.046;38.838;2024-02-21T03:42:15;100899.75;;;-2.59;57.36
68456;BME280;55437;55.046;38.838;2024-02-21T03:44:41;100894.09;;;-2.54;57.66
68456;BME280;55437;55.046;38.838;2024-02-21T03:47:07;100894.44;;;-2.44;57.03
68456;BME280;55437;55.046;38.838;2024-02-21T03:49:36;100898.63;;;-2.45;57.31
68456;BME280;55437;55.046;38.838;2024-02-21T03:52:03;100894.25;;;-2.49;57.12
68456;BME280;55437;55.046;38.838;2024-02-21T03:54:29;100894.84;;;-2.56;57.38
68456;BME280;55437;55.046;38.838;2024-02-21T03:56:55;100886.50;;;-2.55;57.24
68456;BME280;55437;55.046;38.838;2024-02-21T03:59:22;100888.31;;;-2.51;57.51
68456;BME280;55437;55.046;38.838;2024-02-21T04:01:54;100889.88;;;-2.55;57.34
68456;BME280;55437;55.046;38.838;2024-02-21T04:04:20;100892.41;;;-2.55;57.23
68456;BME280;55437;55.046;38.838;2024-02-21T04:06:50;100889.50;;;-2.64;57.50
68456;BME280;55437;55.046;38.838;2024-02-21T04:09:17;100892.72;;;-2.68;57.84
68456;BME280;55437;55.046;38.838;2024-02-21T04:11:45;100893.19;;;-2.56;57.90
68456;BME280;55437;55.046;38.838;2024-02-21T04:14:12;100897.88;;;-2.42;57.32
68456;BME280;55437;55.046;38.838;2024-02-21T04:16:38;100896.09;;;-2.45;57.44
68456;BME280;55437;55.046;38.838;2024-02-21T04:19:04;100900.44;;;-2.41;57.44
68456;BME280;55437;55.046;38.838;2024-02-21T04:21:30;100897.03;;;-2.43;57.09
68456;BME280;55437;55.046;38.838;2024-02-21T04:23:56;100896.03;;;-2.46;57.52
68456;BME280;55437;55.046;38.838;2024-02-21T04:26:22;100903.78;;;-2.42;57.38
68456;BME280;55437;55.046;38.838;2024-02-21T04:28:48;100898.75;;;-2.42;57.48
68456;BME280;55437;55.046;38.838;2024-02-21T04:31:13;100898.84;;;-2.39;57.44
68456;BME280;55437;55.046;38.838;2024-02-21T04:33:41;100903.00;;;-2.39;57.72
68456;BME280;55437;55.046;38.838;2024-02-21T04:36:07;100897.56;;;-2.50;57.58
68456;BME280;55437;55.046;38.838;2024-02-21T04:38:32;100892.44;;;-2.53;57.55
68456;BME280;55437;55.046;38.838;2024-02-21T04:40:58;100896.31;;;-2.61;57.71
68456;BME280;55437;55.046;38.838;2024-02-21T04:43:25;100903.06;;;-2.60;58.06
68456;BME280;55437;55.046;38.838;2024-02-21T04:45:51;100902.00;;;-2.67;58.14
68456;BME280;55437;55.046;38.838;2024-02-21T04:48:19;100905.31;;;-2.68;58.04
68456;BME280;55437;55.046;38.838;2024-02-21T04:50:46;100900.44;;;-2.63;58.37
68456;BME280;55437;55.046;38.838;2024-02-21T04:53:13;100906.38;;;-2.61;57.95
68456;BME280;55437;55.046;38.838;2024-02-21T04:55:39;100908.75;;;-2.64;58.29
68456;BME280;55437;55.046;38.838;2024-02-21T04:58:07;100906.50;;;-2.58;57.59
68456;BME280;55437;55.046;38.838;2024-02-21T05:00:33;100910.88;;;-2.53;57.83
68456;BME280;55437;55.046;38.838;2024-02-21T05:03:00;100905.91;;;-2.51;57.88
68456;BME280;55437;55.046;38.838;2024-02-21T05:05:25;100906.09;;;-2.46;57.71
68456;BME280;55437;55.046;38.838;2024-02-21T05:07:51;100902.94;;;-2.41;57.20
68456;BME280;55437;55.046;38.838;2024-02-21T05:10:18;100907.94;;;-2.42;57.81
68456;BME280;55437;55.046;38.838;2024-02-21T05:12:45;100912.13;;;-2.43;57.59
68456;BME280;55437;55.046;38.838;2024-02-21T05:15:12;100909.13;;;-2.33;57.59
68456;BME280;55437;55.046;38.838;2024-02-21T05:17:38;100910.84;;;-2.32;57.50
68456;BME280;55437;55.046;38.838;2024-02-21T05:20:04;100903.25;;;-2.33;57.87
68456;BME280;55437;55.046;38.838;2024-02-21T05:22:31;100904.16;;;-2.31;57.38
68456;BME280;55437;55.046;38.838;2024-02-21T05:24:57;100906.03;;;-2.26;57.60
68456;BME280;55437;55.046;38.838;2024-02-21T05:27:23;100905.69;;;-2.35;57.58
68456;BME280;55437;55.046;38.838;2024-02-21T05:29:48;100900.44;;;-2.41;57.74
68456;BME280;55437;55.046;38.838;2024-02-21T05:32:15;100900.03;;;-2.29;57.69
68456;BME280;55437;55.046;38.838;2024-02-21T05:34:42;100906.75;;;-2.28;57.65
68456;BME280;55437;55.046;38.838;2024-02-21T05:37:08;100901.66;;;-2.31;57.17
68456;BME280;55437;55.046;38.838;2024-02-21T05:39:34;100913.00;;;-2.19;57.19
68456;BME280;55437;55.046;38.838;2024-02-21T05:42:00;100902.84;;;-2.22;56.89
68456;BME280;55437;55.046;38.838;2024-02-21T05:44:26;100905.56;;;-2.15;57.19
68456;BME280;55437;55.046;38.838;2024-02-21T05:46:52;100909.03;;;-2.12;57.22
68456;BME280;55437;55.046;38.838;2024-02-21T05:49:19;100908.19;;;-2.12;57.16
68456;BME280;55437;55.046;38.838;2024-02-21T05:51:45;100905.84;;;-2.08;56.98
68456;BME280;55437;55.046;38.838;2024-02-21T05:54:11;100910.16;;;-2.04;56.75
68456;BME280;55437;55.046;38.838;2024-02-21T05:56:37;100901.88;;;-2.01;56.65
68456;BME280;55437;55.046;38.838;2024-02-21T05:59:03;100899.53;;;-1.97;56.40
68456;BME280;55437;55.046;38.838;2024-02-21T06:01:29;100907.16;;;-1.95;56.20
68456;BME280;55437;55.046;38.838;2024-02-21T06:03:54;100911.69;;;-1.85;56.52
68456;BME280;55437;55.046;38.838;2024-02-21T06:06:20;100914.09;;;-1.64;55.76
68456;BME280;55437;55.046;38.838;2024-02-21T06:08:47;100915.06;;;-1.61;55.93
68456;BME280;55437;55.046;38.838;2024-02-21T06:11:13;100921.81;;;-1.60;55.86
68456;BME280;55437;55.046;38.838;2024-02-21T06:13:41;100911.13;;;-1.53;55.61
68456;BME280;55437;55.046;38.838;2024-02-21T06:16:07;100907.56;;;-1.59;55.61
68456;BME280;55437;55.046;38.838;2024-02-21T06:18:35;100911.13;;;-1.53;55.41
68456;BME280;55437;55.046;38.838;2024-02-21T06:21:02;100917.19;;;-1.48;55.26
68456;BME280;55437;55.046;38.838;2024-02-21T06:23:28;100908.84;;;-1.47;54.75
68456;BME280;55437;55.046;38.838;2024-02-21T06:25:54;100914.69;;;-1.48;54.79
68456;BME280;55437;55.046;38.838;2024-02-21T06:28:20;100907.19;;;-1.45;55.12
68456;BME280;55437;55.046;38.838;2024-02-21T06:30:46;100909.41;;;-1.54;54.83
68456;BME280;55437;55.046;38.838;2024-02-21T06:33:12;100917.09;;;-1.51;55.06
68456;BME280;55437;55.046;38.838;2024-02-21T06:35:38;100906.69;;;-1.60;55.12
68456;BME280;55437;55.046;38.838;2024-02-21T06:38:06;100909.41;;;-1.54;55.33
68456;BME280;55437;55.046;38.838;2024-02-21T06:40:33;100916.09;;;-1.54;55.30
68456;BME280;55437;55.046;38.838;2024-02-21T06:43:04;100908.38;;;-1.60;55.10
68456;BME280;55437;55.046;38.838;2024-02-21T06:45:30;100914.75;;;-1.45;55.09
68456;BME280;55437;55.046;38.838;2024-02-21T06:47:57;100912.75;;;-1.29;54.64
68456;BME280;55437;55.046;38.838;2024-02-21T06:50:23;100914.75;;;-1.19;54.46
68456;BME280;55437;55.046;38.838;2024-02-21T06:52:49;100914.13;;;-1.14;53.87
68456;BME280;55437;55.046;38.838;2024-02-21T06:55:15;100921.63;;;-1.15;54.18
68456;BME280;55437;55.046;38.838;2024-02-21T06:57:41;100911.66;;;-1.12;53.83
68456;BME280;55437;55.046;38.838;2024-02-21T07:00:09;100903.47;;;-1.05;53.63
68456;BME280;55437;55.046;38.838;2024-02-21T07:02:35;100909.63;;;-0.97;54.08
68456;BME280;55437;55.046;38.838;2024-02-21T07:05:01;100920.00;;;-0.88;53.63
68456;BME280;55437;55.046;38.838;2024-02-21T07:07:29;100905.28;;;-0.74;53.14
68456;BME280;55437;55.046;38.838;2024-02-21T07:09:55;100912.16;;;-0.68;52.83
68456;BME280;55437;55.046;38.838;2024-02-21T07:12:21;100915.59;;;-0.66;52.76
68456;BME280;55437;55.046;38.838;2024-02-21T07:14:47;100909.03;;;-0.61;52.77
68456;BME280;55437;55.046;38.838;2024-02-21T07:17:13;100918.38;;;-0.57;52.51
68456;BME280;55437;55.046;38.838;2024-02-21T07:19:39;100908.50;;;-0.51;52.50
68456;BME280;55437;55.046;38.838;2024-02-21T07:22:05;100909.03;;;-0.33;52.21
68456;BME280;55437;55.046;38.838;2024-02-21T07:24:31;100910.13;;;-0.25;52.06
68456;BME280;55437;55.046;38.838;2024-02-21T07:26:58;100903.88;;;-0.36;51.78
68456;BME280;55437;55.046;38.838;2024-02-21T07:29:30;100909.28;;;-0.24;51.79
68456;BME280;55437;55.046;38.838;2024-02-21T07:31:56;100911.03;;;-0.21;51.65
68456;BME280;55437;55.046;38.838;2024-02-21T07:34:22;100913.63;;;-0.20;51.49
68456;BME280;55437;55.046;38.838;2024-02-21T07:36:48;100912.72;;;-0.22;51.73
68456;BME280;55437;55.046;38.838;2024-02-21T07:39:14;100913.53;;;-0.23;51.35
68456;BME280;55437;55.046;38.838;2024-02-21T07:41:41;100911.19;;;-0.17;51.56
68456;BME280;55437;55.046;38.838;2024-02-21T07:44:08;100913.41;;;-0.27;51.28
68456;BME280;55437;55.046;38.838;2024-02-21T07:46:34;100910.53;;;-0.40;51.64
68456;BME280;55437;55.046;38.838;2024-02-21T07:49:00;100907.84;;;-0.44;51.36
68456;BME280;55437;55.046;38.838;2024-02-21T07:51:28;100916.03;;;-0.24;51.29
68456;BME280;55437;55.046;38.838;2024-02-21T07:53:54;100907.91;;;-0.14;51.06
68456;BME280;55437;55.046;38.838;2024-02-21T07:56:20;100918.03;;;-0.13;51.16
68456;BME280;55437;55.046;38.838;2024-02-21T07:58:45;100917.69;;;0.05;50.99
68456;BME280;55437;55.046;38.838;2024-02-21T08:01:18;100907.16;;;0.20;50.39
68456;BME280;55437;55.046;38.838;2024-02-21T08:03:44;100913.69;;;0.12;50.72
68456;BME280;55437;55.046;38.838;2024-02-21T08:06:12;100923.41;;;0.29;50.36
68456;BME280;55437;55.046;38.838;2024-02-21T08:08:39;100919.75;;;0.18;50.17
68456;BME280;55437;55.046;38.838;2024-02-21T08:11:04;100921.78;;;0.02;50.47
68456;BME280;55437;55.046;38.838;2024-02-21T08:13:31;100920.00;;;-0.03;50.32
68456;BME280;55437;55.046;38.838;2024-02-21T08:15:57;100918.28;;;-0.04;50.49
68456;BME280;55437;55.046;38.838;2024-02-21T08:18:23;100919.91;;;-0.06;50.42
68456;BME280;55437;55.046;38.838;2024-02-21T08:20:49;100921.06;;;0.06;50.39
68456;BME280;55437;55.046;38.838;2024-02-21T08:23:23;100918.94;;;0.19;50.25
68456;BME280;55437;55.046;38.838;2024-02-21T08:25:49;100922.09;;;0.44;49.97
68456;BME280;55437;55.046;38.838;2024-02-21T08:28:15;100925.72;;;0.53;49.63
68456;BME280;55437;55.046;38.838;2024-02-21T08:30:42;100921.56;;;0.55;49.61
68456;BME280;55437;55.046;38.838;2024-02-21T08:33:15;100935.94;;;0.26;49.79
68456;BME280;55437;55.046;38.838;2024-02-21T08:35:42;100934.16;;;0.22;49.78
68456;BME280;55437;55.046;38.838;2024-02-21T08:38:08;100933.22;;;0.19;49.94
68456;BME280;55437;55.046;38.838;2024-02-21T08:40:54;100928.50;;;0.31;49.74
68456;BME280;55437;55.046;38.838;2024-02-21T08:43:20;100928.47;;;0.29;49.87
68456;BME280;55437;55.046;38.838;2024-02-21T08:45:45;100928.50;;;0.31;49.74
68456;BME280;55437;55.046;38.838;2024-02-21T08:48:11;100924.31;;;0.31;49.81
68456;BME280;55437;55.046;38.838;2024-02-21T08:50:37;100925.13;;;0.30;49.52
68456;BME280;55437;55.046;38.838;2024-02-21T08:53:04;100924.25;;;0.30;49.70
68456;BME280;55437;55.046;38.838;2024-02-21T08:55:29;100919.25;;;0.31;49.27
68456;BME280;55437;55.046;38.838;2024-02-21T08:57:56;100922.72;;;0.35;49.48
68456;BME280;55437;55.046;38.838;2024-02-21T09:00:22;100918.34;;;0.29;49.71
68456;BME280;55437;55.046;38.838;2024-02-21T09:02:52;100915.63;;;0.22;49.63
68456;BME280;55437;55.046;38.838;2024-02-21T09:05:18;100922.41;;;0.24;49.93
68456;BME280;55437;55.046;38.838;2024-02-21T09:07:44;100924.06;;;0.22;50.24
68456;BME280;55437;55.046;38.838;2024-02-21T09:10:10;100918.97;;;0.21;49.87
68456;BME280;55437;55.046;38.838;2024-02-21T09:12:41;100912.16;;;0.18;50.28
68456;BME280;55437;55.046;38.838;2024-02-21T09:15:07;100910.53;;;0.20;50.07
68456;BME280;55437;55.046;38.838;2024-02-21T09:17:33;100913.25;;;-0.04;50.27
68456;BME280;55437;55.046;38.838;2024-02-21T09:19:59;100908.28;;;-0.01;50.30
68456;BME280;55437;55.046;38.838;2024-02-21T09:22:30;100906.91;;;0.11;50.05
68456;BME280;55437;55.046;38.838;2024-02-21T09:24:57;100910.72;;;-0.04;50.11
68456;BME280;55437;55.046;38.838;2024-02-21T09:27:22;100904.69;;;-0.09;50.06
68456;BME280;55437;55.046;38.838;2024-02-21T09:29:48;100903.31;;;0.03;49.85
68456;BME280;55437;55.046;38.838;2024-02-21T09:32:39;100900.16;;;0.10;49.98
68456;BME280;55437;55.046;38.838;2024-02-21T09:35:07;100884.66;;;0.29;49.80
68456;BME280;55437;55.046;38.838;2024-02-21T09:37:33;100889.31;;;0.45;49.84
68456;BME280;55437;55.046;38.838;2024-02-21T09:39:59;100891.63;;;0.38;49.75
68456;BME280;55437;55.046;38.838;2024-02-21T09:42:41;100886.44;;;0.02;49.85
68456;BME280;55437;55.046;38.838;2024-02-21T09:45:21;100890.69;;;-0.27;50.72
68456;BME280;55437;55.046;38.838;2024-02-21T09:50:34;100882.22;;;-0.58;51.53
68456;BME280;55437;55.046;38.838;2024-02-21T09:53:02;100884.19;;;-0.49;51.35
68456;BME280;55437;55.046;38.838;2024-02-21T09:55:33;100881.50;;;-0.54;51.50
68456;BME280;55437;55.046;38.838;2024-02-21T09:58:04;100885.16;;;-0.73;52.00
68456;BME280;55437;55.046;38.838;2024-02-21T10:00:30;100881.41;;;-0.85;52.02
68456;BME280;55437;55.046;38.838;2024-02-21T10:02:56;100885.16;;;-0.99;52.40
68456;BME280;55437;55.046;38.838;2024-02-21T10:05:21;100886.16;;;-1.21;52.88
68456;BME280;55437;55.046;38.838;2024-02-21T10:07:51;100866.53;;;-1.30;53.05
68456;BME280;55437;55.046;38.838;2024-02-21T10:10:17;100873.78;;;-1.14;52.84
68456;BME280;55437;55.046;38.838;2024-02-21T10:12:51;100879.88;;;-1.07;52.68
68456;BME280;55437;55.046;38.838;2024-02-21T10:15:21;100873.59;;;-0.93;52.42
68456;BME280;55437;55.046;38.838;2024-02-21T10:18:00;100866.78;;;-0.68;52.29
68456;BME280;55437;55.046;38.838;2024-02-21T10:20:27;100862.28;;;-0.50;51.75
68456;BME280;55437;55.046;38.838;2024-02-21T10:23:04;100856.84;;;-0.34;51.38
68456;BME280;55437;55.046;38.838;2024-02-21T10:25:36;100862.03;;;-0.29;51.19
68456;BME280;55437;55.046;38.838;2024-02-21T10:28:15;100863.91;;;-0.22;51.36
68456;BME280;55437;55.046;38.838;2024-02-21T10:30:51;100870.41;;;-0.30;51.34
68456;BME280;55437;55.046;38.838;2024-02-21T10:33:18;100867.38;;;-0.19;51.01
68456;BME280;55437;55.046;38.838;2024-02-21T10:35:46;100860.56;;;-0.21;51.00
68456;BME280;55437;55.046;38.838;2024-02-21T10:38:12;100852.09;;;-0.25;51.30
68456;BME280;55437;55.046;38.838;2024-02-21T10:40:38;100847.91;;;-0.24;50.98
68456;BME280;55437;55.046;38.838;2024-02-21T10:43:07;100843.13;;;-0.14;51.06
68456;BME280;55437;55.046;38.838;2024-02-21T10:45:36;100849.31;;;-0.03;51.00
68456;BME280;55437;55.046;38.838;2024-02-21T10:48:15;100844.91;;;0.22;50.57
68456;BME280;55437;55.046;38.838;2024-02-21T10:53:44;100851.25;;;0.39;50.42
68456;BME280;55437;55.046;38.838;2024-02-21T10:58:44;100850.09;;;0.59;50.08
68456;BME280;55437;55.046;38.838;2024-02-21T11:01:12;100854.66;;;0.41;50.47
68456;BME280;55437;55.046;38.838;2024-02-21T11:03:45;100842.88;;;0.42;50.11
68456;BME280;55437;55.046;38.838;2024-02-21T11:06:12;100838.00;;;0.48;50.16
68456;BME280;55437;55.046;38.838;2024-02-21T11:08:39;100842.34;;;0.53;49.95
68456;BME280;55437;55.046;38.838;2024-02-21T11:11:05;100843.28;;;0.57;49.64
68456;BME280;55437;55.046;38.838;2024-02-21T11:13:37;100840.16;;;0.67;49.60
68456;BME280;55437;55.046;38.838;2024-02-21T11:16:10;100839.38;;;0.69;49.49
68456;BME280;55437;55.046;38.838;2024-02-21T11:18:39;100832.84;;;0.79;49.41
68456;BME280;55437;55.046;38.838;2024-02-21T11:21:06;100836.41;;;0.87;49.42
68456;BME280;55437;55.046;38.838;2024-02-21T11:23:33;100824.50;;;0.82;49.32
68456;BME280;55437;55.046;38.838;2024-02-21T11:26:09;100831.63;;;0.99;49.09
68456;BME280;55437;55.046;38.838;2024-02-21T11:28:35;100830.00;;;1.01;48.81
68456;BME280;55437;55.046;38.838;2024-02-21T11:31:14;100823.47;;;1.11;48.59
68456;BME280;55437;55.046;38.838;2024-02-21T11:33:43;100815.72;;;1.03;48.72
68456;BME280;55437;55.046;38.838;2024-02-21T11:36:09;100820.50;;;0.91;49.13
68456;BME280;55437;55.046;38.838;2024-02-21T11:38:36;100823.69;;;0.83;49.19
68456;BME280;55437;55.046;38.838;2024-02-21T11:41:02;100820.94;;;0.75;49.19
68456;BME280;55437;55.046;38.838;2024-02-21T11:43:28;100812.75;;;0.85;49.37
68456;BME280;55437;55.046;38.838;2024-02-21T11:46:03;100810.38;;;0.91;49.00
68456;BME280;55437;55.046;38.838;2024-02-21T11:48:31;100802.56;;;0.81;49.03
68456;BME280;55437;55.046;38.838;2024-02-21T11:50:57;100802.13;;;0.62;49.28
68456;BME280;55437;55.046;38.838;2024-02-21T11:53:24;100814.66;;;0.58;49.92
68456;BME280;55437;55.046;38.838;2024-02-21T11:55:50;100816.94;;;0.49;49.81
68456;BME280;55437;55.046;38.838;2024-02-21T11:58:16;100814.25;;;0.41;49.87
68456;BME280;55437;55.046;38.838;2024-02-21T12:00:43;100808.28;;;0.39;49.92
68456;BME280;55437;55.046;38.838;2024-02-21T12:03:09;100812.50;;;0.39;50.15
68456;BME280;55437;55.046;38.838;2024-02-21T12:05:35;100811.63;;;0.38;49.92
68456;BME280;55437;55.046;38.838;2024-02-21T12:08:01;100816.22;;;0.53;49.92
68456;BME280;55437;55.046;38.838;2024-02-21T12:10:27;100806.22;;;0.57;50.19
68456;BME280;55437;55.046;38.838;2024-02-21T12:13:08;100820.53;;;0.57;50.34
68456;BME280;55437;55.046;38.838;2024-02-21T12:15:34;100808.84;;;0.60;49.99
68456;BME280;55437;55.046;38.838;2024-02-21T12:18:00;100808.13;;;0.31;50.74
68456;BME280;55437;55.046;38.838;2024-02-21T12:20:26;100812.31;;;0.31;50.80
68456;BME280;55437;55.046;38.838;2024-02-21T12:22:53;100808.25;;;0.38;50.78
68456;BME280;55437;55.046;38.838;2024-02-21T12:25:23;100805.72;;;0.36;50.79
68456;BME280;55437;55.046;38.838;2024-02-21T12:27:52;100806.44;;;0.32;51.07
68456;BME280;55437;55.046;38.838;2024-02-21T12:30:43;100808.00;;;0.27;51.13
68456;BME280;55437;55.046;38.838;2024-02-21T12:33:09;100806.47;;;-0.01;51.55
68456;BME280;55437;55.046;38.838;2024-02-21T12:35:35;100805.59;;;-0.02;51.60
68456;BME280;55437;55.046;38.838;2024-02-21T12:38:01;100810.91;;;-0.22;51.95
68456;BME280;55437;55.046;38.838;2024-02-21T12:40:27;100795.81;;;-0.21;51.80
68456;BME280;55437;55.046;38.838;2024-02-21T12:43:00;100798.34;;;-0.21;52.11
68456;BME280;55437;55.046;38.838;2024-02-21T12:45:35;100797.09;;;-0.37;52.24
68456;BME280;55437;55.046;38.838;2024-02-21T12:48:01;100798.19;;;-0.57;52.52
68456;BME280;55437;55.046;38.838;2024-02-21T12:50:27;100790.38;;;-0.66;53.13
68456;BME280;55437;55.046;38.838;2024-02-21T12:52:53;100814.50;;;-0.74;53.06
68456;BME280;55437;55.046;38.838;2024-02-21T12:55:19;100800.97;;;-0.78;53.21